Reading, KS (66868)

1:25 AM CDT on October 22, 2014 (GMT -0500)
East Emporia Kansas | Change Station
CLOSE
Current Station
Personal Weather Station
Location: Emporia, KS
Elevation: 1106 ft
Nearby Weather Stations

Elev 1106 ft 38.39 °N, 96.12 °W | Updated 14 minutes ago

Clear
Clear
56.3 °F
Feels Like 56.3 °F
N
4.7
Wind Variable Wind from SSE

Today
High -- | Low -- °F
--% Chance of Precip.
Yesterday
High -- | Low -- °F
Precip. -- in
7:40 AM 6:36 PM
Waning Crescent, 3% visible
Pressure 30.06 in
Visibility 10.0 miles
Clouds Clear
Dew Point 48 °F
Humidity 74%
Rainfall 0.00 in
Snow Depth Not available.
UV 0 out of 12
Pollen 2.90 out of 12
Air Quality Not available.
Flu Activity No Activity
METAR KEMP 220553Z AUTO 12007KT 10SM CLR 14/11 A3007 RMK AO2 SLP179 T01390106 10189 20139 402440056 50001

More Conditions Fewer Conditions

Pressure 30.06 in
Visibility 10.0 miles
Clouds Clear
Dew Point 48 °F
Humidity 74%
Rainfall 0.00 in
Snow Depth Not available.
UV 0 out of 12
Pollen 2.90 out of 12
Air Quality Not available.
Flu Activity No Activity
METAR KEMP 220553Z AUTO 12007KT 10SM CLR 14/11 A3007 RMK AO2 SLP179 T01390106 10189 20139 402440056 50001

More Conditions Fewer Conditions

10-Day Weather Forecast

Almanac

Astronomy

Oct. 22, 2014 Rise Set
Actual Time 7:40 AM CDT 6:36 PM CDT
Civil Twilight 7:13 AM CDT 7:03 PM CDT
Nautical Twilight 6:42 AM CDT 7:34 PM CDT
Astronomical Twilight 6:11 AM CDT 8:04 PM CDT
Moon 6:23 AM CDT 6:02 PM CDT
Length of Visible Light 11h 50m
Length of Day
10h 56m
Tomorrow will be 2m 19s shorter.
Waning Crescent, 3% of the Moon is Illuminated
Today
Waning Crescent
Oct 23
New
Oct 30
First Quarter
Nov 6
Full
Nov 14
Last Quarter

Today's Extremes

State Highs State Lows

Community

WunderPhotos

Upload Photos

1,763,885 photos uploaded!

Nearby

Snow Depth

Station Depth Elevation
No new snow has been reported.

Earthquake Activity

City Distance Mag. Time & Date
Anthony, Kansas 145 miles 3.0 6:55 AM CDT
2014-10-21
Medford, Oklahoma 160 miles 3.1 3:55 AM CDT
2014-10-21
Medford, Oklahoma 161 miles 3.2 7:46 PM CDT
2014-10-20
Anthony, Kansas 145 miles 2.6 6:30 PM CDT
2014-10-20
Minimum magnitude displayed is 2.5.

Coastal Water Temperatures

Place Temperature
No Stations Reporting

Nearby Weather Stations